Historyczne dane pomiarowe

Dodano dane terminowe – wersja testowa.

Dane z okresu 1951-2019

Wersja bazy: 1.34 [2019-03-16, lista zmian], aktualizacja planowana na 2019-04-15

Dane meteo z obszaru Polski uzyskane na podstawie danych udostępnionych przez Instytut Meteorologii i Gospodarki Wodnej – Państwowy Instytut Badawczy.

 

Wybierz Datę:    

       

TemperaturaWilgotnośćWiatrCiśnienieOpadyŚniegCzas trwania zjawisk
 Stacja t tx tn tng RH VA  wxwx mslp ppp RRR   cm mm wxwxwxwxwxwxwx
1919-08-13 21.6 29.4 12.4--------- 0.0--x---------
1919-08-14 17.6 25.4 13.8--------- 0.0--x---------
1919-08-15 14.3 18.8 9.9--------- 1.0--x---------
1919-08-16 14.7 22.8 8.1--------- 0.0--x---------
1919-08-17 19.5 27.5 7.9--------- 0.0--x---------
1919-08-18 18.8 26.9 13.1--------- 0.0--x---------
1919-08-19 22.9 30.9 15.8--------- 0.0--x---------
1919-08-20 23.6 32.1 16.2--------- 0.0--x---------
1919-08-21 17.2 27.3 15.1--------- 0.0--x---------
1919-08-22 13.9 21.2 9.6--------- 2.9--x---------
1919-08-23 15.1 22.1 10.2--------- 0.0--x---------
1919-08-24 12.5 17.6 10.6--------- 1.7--x---------
1919-08-25 11.5 18.5 6.8--------- 6.3--x---------
1919-08-26 16.6 23.0 6.0--------- 0.9--x---------
1919-08-27 17.2 22.9 14.3--------- 0.0--x---------
1919-08-28 19.5 26.1 10.8--------- 0.0--x---------
1919-08-29 22.8 32.8 17.0--------- 0.0--x---------
1919-08-30 13.6 20.1 12.2--------- 15.7--x---------
1919-08-31 12.8 20.2 8.0--------- 3.7--x---------
1919-09-01 12.5 22.7 6.1--------- 0.0--x---------
1919-09-02 12.6 20.3 4.5--------- 0.0--x---------
1919-09-03 17.2 23.3 9.6--------- 0.0--x---------
1919-09-04 18.6 28.5 12.2--------- 0.0--x---------
1919-09-05 17.6 27.5 11.5--------- 0.0--x---------
1919-09-06 19.5 27.3 10.6--------- 0.0--x---------
1919-09-07 19.9 29.9 11.0--------- 0.0--x---------
1919-09-08 16.6 23.6 14.0--------- 0.0--x---------
1919-09-09 19.0 24.8 10.2--------- 0.0--x---------
1919-09-10 17.0 24.8 14.2--------- 0.0--x---------
1919-09-11 21.5 32.8 10.1--------- 0.0--x---------
28.4 ms

 

Źródłem pochodzenia danych jest Instytut Meteorologii i Gospodarki Wodnej – Państwowy Instytut Badawczy. Dane Instytutu Meteorologii i Gospodarki Wodnej – Państwowego Instytutu Badawczego zostały przetworzone.

Dane źródłowe można odnaleźć na stronie https://dane.imgw.pl